Aeroporto :
LOGIN :

Iscrizione | Disclaimer

   EN    FR    IT 

 










Sommario :    VFR   VFR Marginale   IFR   IFR Intensivo   IFR Molto Intensivo
Visibilità : 
Base nubi : 
>= 8 km
>= 3000ft
5 / 8 km
1000 / 3000 ft
1500m / 5 km
500 / 1000 ft
800 / 1500m
200 / 500 ft
< 800m
< 200 ft
Simboli :   Temporali  Nebbia  Neve Forte  Precipitazioni Forti  Vento > 20 kt
SIGMETs :   Varie  Temporali  Ghiacco  Turbolenza  Onda orograficha  Ceneri Vulcaniche






- Altitudine del aeroporto : 1299 ft


EDTY - Adolf Würth

ULTIMO METAR :
  • 191720Z 30006KT 6000 BKN003 BKN005 04/04 Q1017

METARs OBSOLETI :
  • 191650Z 30004KT 9999 BKN005 OVC008 04/03 Q1017
  • 191620Z 29004KT 9999 BKN008 OVC034 05/03 Q1017
  • 191550Z 29003KT 9999 FEW009 OVC026 04/03 Q1017
  • 191520Z 29004KT 9999 FEW006 OVC020 05/03 Q1017
  • 191450Z 31006KT 9999 FEW007 BKN009 OVC012 05/04 Q1016

TAF TAF EDTY
Valido dal 19 a 18 ore il 20 a 03 ore UTC


191700Z 1918/2003 VRB03KT 9999 BKN008
BECMG 1918/1920 4000 BR
TEMPO 1920/1924 6000 BKN010
PROB30
TEMPO 2000/2003 1500 BCFG



MetMap, La meteo Aeronautica in un colpo d'occhio ! - Copyright ORBIFLY Dicembre 2007 - Disclaimer

ORBIFLY MET'MAP TEAM :

Programmazione e sviluppo : Alexandra Zaïnal
Concezione e sviluppo : Baudouin d'Aumeries
Co-Programmazione e sviluppo : Marc-Olivier Méhu
Supporto tecnico e logistico : Manuel Goepfert
Aiuto per la traduzione : Arnaldo La Scala

Contatto : metmap@orbifly.com




FONTI E CREDITI :

   NOAA